createdAt,value
2023-03-27T00:02:08.623Z,18.20
2023-03-27T00:04:35.570Z,18.20
2023-03-27T00:07:03.223Z,18.10
2023-03-27T00:09:31.881Z,18.10
2023-03-27T00:11:59.075Z,18.10
2023-03-27T00:14:26.103Z,18.10
2023-03-27T00:16:52.818Z,18.00
2023-03-27T00:19:19.682Z,18.00
2023-03-27T00:21:46.515Z,18.00
2023-03-27T00:24:13.916Z,18.00
2023-03-27T00:26:40.950Z,17.90
2023-03-27T00:29:08.119Z,17.90
2023-03-27T00:31:35.570Z,17.90
2023-03-27T00:34:03.502Z,17.90
2023-03-27T00:36:31.148Z,17.80
2023-03-27T00:38:57.900Z,17.90
2023-03-27T00:41:24.785Z,17.80
2023-03-27T00:43:54.425Z,17.80
2023-03-27T00:46:28.270Z,17.80
2023-03-27T00:48:56.106Z,17.80
2023-03-27T00:51:24.915Z,17.70
2023-03-27T00:53:52.787Z,17.70
2023-03-27T00:56:20.034Z,17.70
2023-03-27T00:58:51.297Z,17.70
2023-03-27T01:01:20.145Z,17.70
2023-03-27T01:03:48.892Z,17.60
2023-03-27T01:06:17.306Z,17.60
2023-03-27T01:08:46.674Z,17.60
2023-03-27T01:11:31.739Z,17.60
2023-03-27T01:14:08.277Z,17.60
2023-03-27T01:16:41.804Z,17.50
2023-03-27T01:19:38.214Z,17.50
2023-03-27T01:22:31.284Z,17.50
2023-03-27T01:24:57.960Z,17.50
2023-03-27T01:27:52.934Z,17.50
2023-03-27T01:30:56.951Z,17.40
2023-03-27T01:33:29.994Z,17.40
2023-03-27T01:36:16.509Z,17.40
2023-03-27T01:39:08.122Z,17.30
2023-03-27T01:41:46.552Z,17.30
2023-03-27T01:44:27.184Z,17.30
2023-03-27T01:47:52.537Z,17.30
2023-03-27T01:50:42.048Z,17.30
2023-03-27T01:53:37.670Z,17.30
2023-03-27T01:56:13.594Z,17.20
2023-03-27T01:58:47.970Z,17.20
2023-03-27T02:01:21.002Z,17.20
2023-03-27T02:03:54.245Z,17.20
2023-03-27T02:06:23.855Z,17.20
2023-03-27T02:09:14.831Z,17.10
2023-03-27T02:11:49.689Z,17.10
2023-03-27T02:14:21.454Z,17.10
2023-03-27T02:16:54.925Z,17.00
2023-03-27T02:19:30.044Z,17.10
2023-03-27T02:21:56.837Z,17.10
2023-03-27T02:24:24.381Z,17.10
2023-03-27T02:27:09.188Z,17.10
2023-03-27T02:30:17.315Z,17.00
2023-03-27T02:33:09.004Z,17.00
2023-03-27T02:36:01.096Z,16.90
2023-03-27T02:38:28.499Z,16.90
2023-03-27T02:41:20.212Z,16.90
2023-03-27T02:43:59.221Z,16.90
2023-03-27T02:46:59.109Z,16.90
2023-03-27T02:49:33.968Z,16.90
2023-03-27T02:52:09.701Z,16.90
2023-03-27T02:54:42.688Z,16.80
2023-03-27T02:57:15.383Z,16.80
2023-03-27T03:00:20.639Z,16.80
2023-03-27T03:03:30.392Z,16.80
2023-03-27T03:06:07.485Z,16.80
2023-03-27T03:08:38.424Z,16.70
2023-03-27T03:11:10.697Z,16.70
2023-03-27T03:13:37.977Z,16.70
2023-03-27T03:16:05.592Z,16.70
2023-03-27T03:18:33.496Z,16.70
2023-03-27T03:21:00.449Z,16.70
2023-03-27T03:23:27.664Z,16.70
2023-03-27T03:25:56.764Z,16.70
2023-03-27T03:28:27.469Z,16.70
2023-03-27T03:30:54.747Z,16.60
2023-03-27T03:33:22.334Z,16.60
2023-03-27T03:35:50.501Z,16.60
2023-03-27T03:38:37.730Z,16.60
2023-03-27T03:41:09.569Z,16.60
2023-03-27T03:43:36.348Z,16.60
2023-03-27T03:46:03.335Z,16.60
2023-03-27T03:48:30.124Z,16.60
2023-03-27T03:51:07.815Z,16.50
2023-03-27T03:53:34.710Z,16.50
2023-03-27T03:56:01.794Z,16.50
2023-03-27T03:58:34.909Z,16.50
2023-03-27T04:01:04.778Z,16.40
2023-03-27T04:03:42.132Z,16.50
2023-03-27T04:06:10.850Z,16.50
2023-03-27T04:08:37.791Z,16.40
2023-03-27T04:11:05.325Z,16.40
2023-03-27T04:14:04.379Z,16.40
2023-03-27T04:16:37.292Z,16.40
2023-03-27T04:19:24.602Z,16.40
2023-03-27T04:22:01.941Z,16.40
2023-03-27T04:24:31.447Z,16.40
2023-03-27T04:27:01.490Z,16.40
2023-03-27T04:29:43.209Z,16.30
2023-03-27T04:32:28.618Z,16.30
2023-03-27T04:35:14.301Z,16.30
2023-03-27T04:37:48.367Z,16.30
2023-03-27T04:40:35.320Z,16.20
2023-03-27T04:43:02.180Z,16.20
2023-03-27T04:45:32.281Z,16.20
2023-03-27T04:47:59.272Z,16.20
2023-03-27T04:50:26.050Z,16.20
2023-03-27T04:52:58.533Z,16.20
2023-03-27T04:55:28.100Z,16.10
2023-03-27T04:57:57.429Z,16.10
2023-03-27T05:00:24.260Z,16.10
2023-03-27T05:03:20.426Z,16.10
2023-03-27T05:06:05.505Z,16.10
2023-03-27T05:08:33.377Z,16.10
2023-03-27T05:11:00.345Z,16.10
2023-03-27T05:13:30.530Z,16.10
2023-03-27T05:15:59.322Z,16.00
2023-03-27T05:18:30.619Z,16.00
2023-03-27T05:20:59.101Z,16.00
2023-03-27T05:23:26.523Z,16.00
2023-03-27T05:26:00.108Z,16.00
2023-03-27T05:28:36.617Z,16.00
2023-03-27T05:31:04.086Z,15.90
2023-03-27T05:33:39.901Z,15.90
2023-03-27T05:36:09.884Z,15.90
2023-03-27T05:38:42.215Z,15.90
2023-03-27T05:41:16.062Z,15.90
2023-03-27T05:43:47.125Z,15.90
2023-03-27T05:46:21.069Z,15.80
2023-03-27T05:49:04.424Z,15.80
2023-03-27T05:51:31.679Z,15.80
2023-03-27T05:53:59.035Z,15.80
2023-03-27T05:56:35.125Z,15.80
2023-03-27T05:59:04.036Z,15.80
2023-03-27T06:01:35.974Z,15.80
2023-03-27T06:04:04.413Z,15.80
2023-03-27T06:06:51.216Z,15.80
2023-03-27T06:09:17.954Z,15.70
2023-03-27T06:12:00.661Z,15.70
2023-03-27T06:14:27.420Z,15.70
2023-03-27T06:17:10.056Z,15.70
2023-03-27T06:19:44.095Z,15.70
2023-03-27T06:22:11.098Z,15.70
2023-03-27T06:24:38.977Z,15.70
2023-03-27T06:27:05.875Z,15.70
2023-03-27T06:29:37.250Z,15.70
2023-03-27T06:32:04.628Z,15.70
2023-03-27T06:34:37.137Z,15.70
2023-03-27T06:37:15.994Z,15.70
2023-03-27T06:39:44.109Z,15.70
2023-03-27T06:42:10.957Z,15.70
2023-03-27T06:44:56.828Z,15.70
2023-03-27T06:47:57.463Z,15.60
2023-03-27T06:50:43.853Z,15.60
2023-03-27T06:53:26.697Z,15.60
2023-03-27T06:55:55.871Z,15.60
2023-03-27T06:58:24.122Z,15.60
2023-03-27T07:00:51.083Z,15.60
2023-03-27T07:03:20.567Z,15.60
2023-03-27T07:06:06.415Z,15.60
2023-03-27T07:09:02.488Z,15.60
2023-03-27T07:11:31.989Z,15.60
2023-03-27T07:14:07.327Z,15.60
2023-03-27T07:16:34.296Z,15.60
2023-03-27T07:19:02.374Z,15.60
2023-03-27T07:21:31.041Z,15.60
2023-03-27T07:23:59.575Z,15.50
2023-03-27T07:26:32.492Z,15.50
2023-03-27T07:29:03.080Z,15.50
2023-03-27T07:31:51.109Z,15.50
2023-03-27T07:34:17.911Z,15.50
2023-03-27T07:37:07.539Z,15.50
2023-03-27T07:39:36.928Z,15.50
2023-03-27T07:42:03.798Z,15.50
2023-03-27T07:44:42.186Z,15.50
2023-03-27T07:47:09.464Z,15.50
2023-03-27T07:49:38.804Z,15.50
2023-03-27T07:52:09.099Z,15.50
2023-03-27T07:54:43.211Z,15.50
2023-03-27T07:57:13.887Z,15.50
2023-03-27T07:59:57.419Z,15.40
2023-03-27T08:02:31.368Z,15.40
2023-03-27T08:04:58.371Z,15.40
2023-03-27T08:07:25.793Z,15.40
2023-03-27T08:09:57.485Z,15.40
2023-03-27T08:12:24.401Z,15.40
2023-03-27T08:14:57.459Z,15.40
2023-03-27T08:17:27.977Z,15.40
2023-03-27T08:19:56.055Z,15.40
2023-03-27T08:22:25.518Z,15.40
2023-03-27T08:25:10.959Z,15.40
2023-03-27T08:27:39.309Z,15.40
2023-03-27T08:30:06.821Z,15.40
2023-03-27T08:32:39.651Z,15.40
2023-03-27T08:35:09.750Z,15.40
2023-03-27T08:37:36.550Z,15.40
2023-03-27T08:40:31.793Z,15.40
2023-03-27T08:43:21.196Z,15.40
2023-03-27T08:46:09.388Z,15.40
2023-03-27T08:48:48.276Z,15.40
2023-03-27T08:51:22.382Z,15.40
2023-03-27T08:54:02.746Z,15.40
2023-03-27T08:56:31.799Z,15.50
2023-03-27T08:58:58.660Z,15.50
2023-03-27T09:02:02.953Z,15.50
2023-03-27T09:04:52.230Z,15.50
2023-03-27T09:07:32.555Z,15.60
2023-03-27T09:10:15.283Z,15.60
2023-03-27T09:13:04.454Z,15.60
2023-03-27T09:15:41.735Z,15.60
2023-03-27T09:18:21.012Z,15.60
2023-03-27T09:20:53.259Z,15.50
2023-03-27T09:23:37.006Z,15.60
2023-03-27T09:26:34.092Z,15.60
2023-03-27T09:29:31.299Z,15.60
2023-03-27T09:32:17.988Z,15.60
2023-03-27T09:34:45.962Z,15.60
2023-03-27T09:37:17.533Z,15.70
2023-03-27T09:39:52.688Z,15.70
2023-03-27T09:42:39.409Z,15.80
2023-03-27T09:45:10.090Z,15.80
2023-03-27T09:48:04.064Z,15.80
2023-03-27T09:50:47.289Z,15.90
2023-03-27T09:53:26.533Z,15.90
2023-03-27T09:56:17.622Z,15.90
2023-03-27T09:58:50.683Z,15.90
2023-03-27T10:01:34.657Z,16.00
2023-03-27T10:04:26.054Z,16.00
2023-03-27T10:07:01.679Z,16.10
2023-03-27T10:10:12.207Z,16.00
2023-03-27T10:13:04.312Z,16.10
2023-03-27T10:15:41.179Z,16.10
2023-03-27T10:18:27.146Z,16.10
2023-03-27T10:21:10.649Z,16.10
2023-03-27T10:23:44.886Z,16.20
2023-03-27T10:26:27.731Z,16.20
2023-03-27T10:29:18.281Z,16.20
2023-03-27T10:31:54.097Z,16.20
2023-03-27T10:34:57.201Z,16.20
2023-03-27T10:37:53.406Z,16.20
2023-03-27T10:40:51.281Z,16.20
2023-03-27T10:43:49.706Z,16.20
2023-03-27T10:46:21.574Z,16.10
2023-03-27T10:49:09.812Z,16.20
2023-03-27T10:52:17.809Z,16.20
2023-03-27T10:55:22.615Z,16.20
2023-03-27T10:57:56.049Z,16.20
2023-03-27T11:00:38.647Z,16.20
2023-03-27T11:03:34.143Z,16.20
2023-03-27T11:06:08.078Z,16.20
2023-03-27T11:09:16.118Z,16.20
2023-03-27T11:12:27.787Z,16.20
2023-03-27T11:15:07.764Z,16.20
2023-03-27T11:17:53.568Z,16.20
2023-03-27T11:20:33.499Z,16.20
2023-03-27T11:23:34.628Z,16.20
2023-03-27T11:26:23.084Z,16.10
2023-03-27T11:29:09.567Z,16.20
2023-03-27T11:31:53.194Z,16.20
2023-03-27T11:34:52.999Z,16.20
2023-03-27T11:37:52.252Z,16.20
2023-03-27T11:40:36.874Z,16.20
2023-03-27T11:43:04.079Z,16.20
2023-03-27T11:46:06.027Z,16.10
2023-03-27T11:48:56.826Z,16.20
2023-03-27T11:52:01.788Z,16.10
2023-03-27T11:54:49.767Z,16.10
2023-03-27T11:57:25.803Z,16.10
2023-03-27T12:00:16.265Z,16.10
2023-03-27T12:03:09.531Z,16.10
2023-03-27T12:05:37.422Z,16.10
2023-03-27T12:08:31.721Z,16.10
2023-03-27T12:11:04.384Z,16.10
2023-03-27T12:14:01.238Z,16.10
2023-03-27T12:16:58.071Z,16.10
2023-03-27T12:19:54.976Z,16.10
2023-03-27T12:22:51.917Z,16.10
2023-03-27T12:25:41.331Z,16.00
2023-03-27T12:28:55.124Z,16.00
2023-03-27T12:31:41.742Z,16.00
2023-03-27T12:34:29.894Z,16.00
2023-03-27T12:36:59.332Z,16.00
2023-03-27T12:39:27.980Z,16.00
2023-03-27T12:42:00.454Z,16.00
2023-03-27T12:45:05.785Z,16.00
2023-03-27T12:47:32.652Z,16.00
2023-03-27T12:50:19.108Z,16.00
2023-03-27T12:52:46.670Z,16.00
2023-03-27T12:55:29.576Z,16.00
2023-03-27T12:57:56.925Z,16.00
2023-03-27T13:00:53.741Z,16.00
2023-03-27T13:03:42.904Z,15.90
2023-03-27T13:06:40.450Z,15.90
2023-03-27T13:09:31.012Z,15.90
2023-03-27T13:12:37.876Z,15.90
2023-03-27T13:15:08.686Z,15.90
2023-03-27T13:17:49.747Z,15.90
2023-03-27T13:20:45.255Z,15.90
2023-03-27T13:23:57.140Z,15.90
2023-03-27T13:26:37.556Z,15.90
2023-03-27T13:29:18.271Z,15.90
2023-03-27T13:31:57.461Z,15.90
2023-03-27T13:35:17.046Z,15.90
2023-03-27T13:37:49.616Z,15.90
2023-03-27T13:40:24.684Z,15.90
2023-03-27T13:43:21.665Z,15.90
2023-03-27T13:45:59.999Z,15.90
2023-03-27T13:48:54.951Z,15.90
2023-03-27T13:51:28.516Z,15.80
2023-03-27T13:54:29.383Z,15.80
2023-03-27T13:57:11.605Z,15.80
2023-03-27T13:59:57.132Z,15.80
2023-03-27T14:03:11.540Z,15.90
2023-03-27T14:06:52.111Z,15.80
2023-03-27T14:13:33.759Z,15.80
2023-03-27T14:16:34.750Z,15.80
2023-03-27T14:19:23.392Z,15.80
2023-03-27T14:21:50.185Z,15.80
2023-03-27T14:24:21.057Z,15.70
2023-03-27T14:26:53.755Z,15.70
2023-03-27T14:29:21.189Z,15.80
2023-03-27T14:31:50.865Z,15.80
2023-03-27T14:34:47.147Z,15.80
2023-03-27T14:37:45.531Z,15.80
2023-03-27T14:40:36.761Z,15.80
2023-03-27T14:43:07.122Z,15.80
2023-03-27T14:45:39.296Z,15.80
2023-03-27T14:48:27.627Z,15.80
2023-03-27T14:50:58.046Z,15.80
2023-03-27T14:53:28.671Z,15.80
2023-03-27T14:56:15.718Z,15.80
2023-03-27T14:59:06.081Z,15.80
2023-03-27T15:02:13.402Z,15.80
2023-03-27T15:04:40.730Z,15.80
2023-03-27T15:07:28.685Z,15.80
2023-03-27T15:10:12.565Z,15.80
2023-03-27T15:13:11.427Z,15.80
2023-03-27T15:15:50.215Z,15.80
2023-03-27T15:18:43.050Z,15.90
2023-03-27T15:21:34.597Z,15.80
2023-03-27T15:24:13.420Z,15.90
2023-03-27T15:26:41.145Z,15.90
2023-03-27T15:29:13.660Z,15.90
2023-03-27T15:31:43.323Z,16.00
2023-03-27T15:34:14.045Z,16.00
2023-03-27T15:36:43.255Z,16.00
2023-03-27T15:39:21.084Z,16.00
2023-03-27T15:42:02.583Z,16.00
2023-03-27T15:44:32.303Z,16.10
2023-03-27T15:47:00.968Z,16.10
2023-03-27T15:49:41.833Z,16.10
2023-03-27T15:52:31.491Z,16.10
2023-03-27T15:54:59.463Z,16.10
2023-03-27T15:57:29.276Z,16.10
2023-03-27T16:00:02.079Z,16.20
2023-03-27T16:02:40.593Z,16.20
2023-03-27T16:05:07.602Z,16.20
2023-03-27T16:07:42.338Z,16.20
2023-03-27T16:10:10.079Z,16.30
2023-03-27T16:12:39.630Z,16.30
2023-03-27T16:15:27.616Z,16.30
2023-03-27T16:17:56.484Z,16.30
2023-03-27T16:20:23.273Z,16.30
2023-03-27T16:22:51.035Z,16.30
2023-03-27T16:25:18.185Z,16.40
2023-03-27T16:27:54.977Z,16.40
2023-03-27T16:30:23.451Z,16.40
2023-03-27T16:32:51.038Z,16.40
2023-03-27T16:35:18.265Z,16.40
2023-03-27T16:37:45.119Z,16.40
2023-03-27T16:40:12.404Z,16.50
2023-03-27T16:42:39.160Z,16.40
2023-03-27T16:45:06.948Z,16.50
2023-03-27T16:47:33.911Z,16.50
2023-03-27T16:52:34.706Z,16.50
2023-03-27T16:55:02.839Z,16.50
2023-03-27T16:57:30.712Z,16.50
2023-03-27T16:59:57.551Z,16.60
2023-03-27T17:02:26.138Z,16.60
2023-03-27T17:04:52.930Z,16.60
2023-03-27T17:07:19.755Z,16.60
2023-03-27T17:09:46.463Z,16.60
2023-03-27T17:12:13.348Z,16.60
2023-03-27T17:14:40.021Z,16.60
2023-03-27T17:17:06.827Z,16.60
2023-03-27T17:19:33.636Z,16.60
2023-03-27T17:22:00.348Z,16.60
2023-03-27T17:24:27.176Z,16.60
2023-03-27T17:26:53.939Z,16.60
2023-03-27T17:29:21.268Z,16.60
2023-03-27T17:31:47.998Z,16.70
2023-03-27T17:34:14.842Z,16.60
2023-03-27T17:36:47.459Z,16.60
2023-03-27T17:39:21.360Z,16.70
2023-03-27T17:41:49.092Z,16.70
2023-03-27T17:44:16.034Z,16.70
2023-03-27T17:46:42.874Z,16.60
2023-03-27T17:49:09.707Z,16.60
2023-03-27T17:51:37.644Z,16.60
2023-03-27T17:54:04.599Z,16.60
2023-03-27T17:56:31.455Z,16.60
2023-03-27T17:59:00.003Z,16.60
2023-03-27T18:01:26.799Z,16.60
2023-03-27T18:03:54.976Z,16.60
2023-03-27T18:06:21.795Z,16.60
2023-03-27T18:08:48.521Z,16.60
2023-03-27T18:11:16.088Z,16.60
2023-03-27T18:13:43.029Z,16.60
2023-03-27T18:16:12.993Z,16.60
2023-03-27T18:18:40.751Z,16.60
2023-03-27T18:21:08.569Z,16.60
2023-03-27T18:23:35.341Z,16.50
2023-03-27T18:26:06.372Z,16.50
2023-03-27T18:28:33.701Z,16.50
2023-03-27T18:31:01.955Z,16.50
2023-03-27T18:33:29.156Z,16.50
2023-03-27T18:35:57.312Z,16.60
2023-03-27T18:38:26.128Z,16.50
2023-03-27T18:40:55.594Z,16.50
2023-03-27T18:43:23.177Z,16.50
2023-03-27T18:45:58.544Z,16.60
2023-03-27T18:48:26.622Z,16.60
2023-03-27T18:50:58.278Z,16.70
2023-03-27T18:53:25.870Z,17.00
2023-03-27T18:55:53.760Z,17.30
2023-03-27T18:58:27.706Z,17.60
2023-03-27T19:00:58.115Z,18.00
2023-03-27T19:03:26.836Z,18.40
2023-03-27T19:05:54.278Z,18.70
2023-03-27T19:08:21.905Z,19.10
2023-03-27T19:10:49.114Z,19.40
2023-03-27T19:13:22.526Z,19.60
2023-03-27T19:16:14.243Z,19.90
2023-03-27T19:18:54.509Z,20.30
2023-03-27T19:21:39.698Z,20.60
2023-03-27T19:24:15.476Z,20.90
2023-03-27T19:26:44.567Z,21.20
2023-03-27T19:29:12.206Z,21.50
2023-03-27T19:31:39.053Z,21.70
2023-03-27T19:34:05.918Z,21.80
2023-03-27T19:36:32.789Z,22.00
2023-03-27T19:39:00.041Z,22.10
2023-03-27T19:41:27.178Z,22.30
2023-03-27T19:43:53.995Z,22.40
2023-03-27T19:46:23.074Z,22.40
2023-03-27T19:48:52.096Z,22.50
2023-03-27T19:51:52.556Z,22.60
2023-03-27T19:54:20.539Z,22.60
2023-03-27T19:56:48.473Z,22.60
2023-03-27T19:59:29.914Z,22.70
2023-03-27T20:02:19.825Z,22.70
2023-03-27T20:04:49.626Z,22.70
2023-03-27T20:07:38.972Z,22.70
2023-03-27T20:13:02.820Z,22.70
2023-03-27T20:15:29.792Z,22.60
2023-03-27T20:17:56.793Z,22.70
2023-03-27T20:20:23.906Z,22.60
2023-03-27T20:22:57.504Z,22.60
2023-03-27T20:25:25.375Z,22.60
2023-03-27T20:27:52.164Z,22.50
2023-03-27T20:30:18.905Z,22.50
2023-03-27T20:32:48.817Z,22.50
2023-03-27T20:35:23.749Z,22.50
2023-03-27T20:37:57.236Z,22.40
2023-03-27T20:40:25.787Z,22.40
2023-03-27T20:43:05.658Z,22.30
2023-03-27T20:45:32.421Z,22.30
2023-03-27T20:48:03.249Z,22.20
2023-03-27T20:50:31.061Z,22.20
2023-03-27T20:52:57.936Z,22.20
2023-03-27T20:55:33.649Z,22.10
2023-03-27T20:58:02.991Z,22.10
2023-03-27T21:00:29.694Z,22.00
2023-03-27T21:02:56.663Z,21.90
2023-03-27T21:05:23.551Z,21.90
2023-03-27T21:07:51.218Z,21.80
2023-03-27T21:10:20.859Z,21.80
2023-03-27T21:12:48.400Z,21.70
2023-03-27T21:15:15.315Z,21.70
2023-03-27T21:17:42.181Z,21.60
2023-03-27T21:20:10.219Z,21.60
2023-03-27T21:22:36.953Z,21.50
2023-03-27T21:25:04.296Z,21.50
2023-03-27T21:27:31.275Z,21.40
2023-03-27T21:29:59.056Z,21.30
2023-03-27T21:32:25.808Z,21.30
2023-03-27T21:34:52.587Z,21.20
2023-03-27T21:37:19.311Z,21.20
2023-03-27T21:39:46.061Z,21.10
2023-03-27T21:42:12.968Z,21.00
2023-03-27T21:44:39.703Z,21.00
2023-03-27T21:47:06.468Z,20.90
2023-03-27T21:49:33.163Z,20.80
2023-03-27T21:51:59.907Z,20.80
2023-03-27T21:54:26.620Z,20.70
2023-03-27T21:56:53.414Z,20.70
2023-03-27T21:59:20.241Z,20.60
2023-03-27T22:01:47.072Z,20.60
2023-03-27T22:04:13.818Z,20.50
2023-03-27T22:06:40.544Z,20.40
2023-03-27T22:09:07.214Z,20.40
2023-03-27T22:11:33.929Z,20.30
2023-03-27T22:14:00.658Z,20.30
2023-03-27T22:16:27.755Z,20.20
2023-03-27T22:18:54.563Z,20.20
2023-03-27T22:21:23.859Z,20.10
2023-03-27T22:23:51.295Z,20.10
2023-03-27T22:26:20.350Z,20.00
2023-03-27T22:28:47.607Z,20.00
2023-03-27T22:31:14.405Z,19.90
2023-03-27T22:33:41.197Z,19.90
2023-03-27T22:36:11.027Z,19.80
2023-03-27T22:38:38.862Z,19.80
2023-03-27T22:41:07.684Z,19.70
2023-03-27T22:43:34.582Z,19.70
2023-03-27T22:46:10.723Z,19.60
2023-03-27T22:48:37.633Z,19.60
2023-03-27T22:51:04.791Z,19.50
2023-03-27T22:53:31.969Z,19.50
2023-03-27T22:56:00.224Z,19.40
2023-03-27T22:58:28.029Z,19.40
2023-03-27T23:00:55.547Z,19.40
2023-03-27T23:03:23.332Z,19.30
2023-03-27T23:05:51.266Z,19.30
2023-03-27T23:08:19.424Z,19.20
2023-03-27T23:10:46.646Z,19.20
2023-03-27T23:13:13.541Z,19.20
2023-03-27T23:15:40.261Z,19.10
2023-03-27T23:18:06.979Z,19.10
2023-03-27T23:20:33.689Z,19.10
2023-03-27T23:23:00.440Z,19.00
2023-03-27T23:25:27.155Z,19.00
2023-03-27T23:27:53.836Z,18.90
2023-03-27T23:30:20.569Z,18.90
2023-03-27T23:32:47.281Z,18.90
2023-03-27T23:35:14.065Z,18.90
2023-03-27T23:37:40.849Z,18.80
2023-03-27T23:40:08.252Z,18.70
2023-03-27T23:42:34.969Z,18.70
2023-03-27T23:45:01.912Z,18.70
2023-03-27T23:47:28.732Z,18.70
2023-03-27T23:49:55.684Z,18.70
2023-03-27T23:52:22.447Z,18.60
2023-03-27T23:54:49.205Z,18.60
2023-03-27T23:57:16.316Z,18.50
2023-03-27T23:59:43.043Z,18.50
